sensor_id;sensor_type;location;lat;lon;timestamp;pressure;altitude;pressure_sealevel;temperature;humidity
23253;BME280;11795;47.054;15.408;2023-03-01T00:00:00;98260;;;3.3;61.9
23253;BME280;11795;47.054;15.408;2023-03-01T00:02:00;98250;;;3.2;62.3
23253;BME280;11795;47.054;15.408;2023-03-01T00:04:00;98250;;;3.4;61.8
23253;BME280;11795;47.054;15.408;2023-03-01T00:06:00;98250;;;3.2;62.1
23253;BME280;11795;47.054;15.408;2023-03-01T00:08:00;98250;;;3.2;62.2
23253;BME280;11795;47.054;15.408;2023-03-01T00:10:00;98250;;;3.3;62.0
23253;BME280;11795;47.054;15.408;2023-03-01T00:12:00;98250;;;3.2;62.4
23253;BME280;11795;47.054;15.408;2023-03-01T00:14:02;98250;;;3.4;62.1
23253;BME280;11795;47.054;15.408;2023-03-01T00:16:02;98250;;;3.2;62.5
23253;BME280;11795;47.054;15.408;2023-03-01T00:18:00;98250;;;3.2;62.6
23253;BME280;11795;47.054;15.408;2023-03-01T00:20:00;98240;;;3.3;62.5
23253;BME280;11795;47.054;15.408;2023-03-01T00:22:00;98240;;;3.2;62.7
23253;BME280;11795;47.054;15.408;2023-03-01T00:24:02;98240;;;3.4;62.3
23253;BME280;11795;47.054;15.408;2023-03-01T00:26:01;98240;;;3.2;62.8
23253;BME280;11795;47.054;15.408;2023-03-01T00:28:00;98240;;;3.2;62.9
23253;BME280;11795;47.054;15.408;2023-03-01T00:30:00;98250;;;3.3;62.7
23253;BME280;11795;47.054;15.408;2023-03-01T00:32:00;98250;;;3.2;63.1
23253;BME280;11795;47.054;15.408;2023-03-01T00:34:04;98250;;;3.3;62.5
23253;BME280;11795;47.054;15.408;2023-03-01T00:36:00;98250;;;3.2;62.9
23253;BME280;11795;47.054;15.408;2023-03-01T00:38:01;98250;;;3.2;63.0
23253;BME280;11795;47.054;15.408;2023-03-01T00:40:00;98240;;;3.2;62.7
23253;BME280;11795;47.054;15.408;2023-03-01T00:42:00;98240;;;3.2;63.1
23253;BME280;11795;47.054;15.408;2023-03-01T00:44:00;98240;;;3.3;62.6
23253;BME280;11795;47.054;15.408;2023-03-01T00:46:01;98230;;;3.2;63.2
23253;BME280;11795;47.054;15.408;2023-03-01T00:48:00;98240;;;3.1;63.8
23253;BME280;11795;47.054;15.408;2023-03-01T00:50:00;98240;;;3.2;63.3
23253;BME280;11795;47.054;15.408;2023-03-01T00:52:00;98240;;;3.1;63.7
23253;BME280;11795;47.054;15.408;2023-03-01T00:54:02;98240;;;3.2;63.5
23253;BME280;11795;47.054;15.408;2023-03-01T00:56:01;98240;;;3.1;63.9
23253;BME280;11795;47.054;15.408;2023-03-01T00:58:00;98230;;;3.0;64.1
23253;BME280;11795;47.054;15.408;2023-03-01T01:00:00;98230;;;3.1;63.8
23253;BME280;11795;47.054;15.408;2023-03-01T01:02:00;98220;;;3.0;64.0
23253;BME280;11795;47.054;15.408;2023-03-01T01:04:02;98220;;;3.1;63.7
23253;BME280;11795;47.054;15.408;2023-03-01T01:06:13;98220;;;3.0;64.0
23253;BME280;11795;47.054;15.408;2023-03-01T01:08:00;98220;;;2.9;64.3
23253;BME280;11795;47.054;15.408;2023-03-01T01:10:00;98230;;;2.8;64.4
23253;BME280;11795;47.054;15.408;2023-03-01T01:12:00;98220;;;2.8;64.6
23253;BME280;11795;47.054;15.408;2023-03-01T01:14:00;98230;;;3.0;63.8
23253;BME280;11795;47.054;15.408;2023-03-01T01:16:00;98220;;;2.9;64.0
23253;BME280;11795;47.054;15.408;2023-03-01T01:18:00;98220;;;2.9;64.2
23253;BME280;11795;47.054;15.408;2023-03-01T01:20:00;98210;;;3.0;63.8
23253;BME280;11795;47.054;15.408;2023-03-01T01:22:00;98210;;;2.9;64.2
23253;BME280;11795;47.054;15.408;2023-03-01T01:24:03;98210;;;3.1;63.6
23253;BME280;11795;47.054;15.408;2023-03-01T01:26:05;98210;;;3.0;63.9
23253;BME280;11795;47.054;15.408;2023-03-01T01:28:00;98210;;;3.0;64.0
23253;BME280;11795;47.054;15.408;2023-03-01T01:30:00;98210;;;3.1;63.7
23253;BME280;11795;47.054;15.408;2023-03-01T01:32:00;98210;;;3.0;64.1
23253;BME280;11795;47.054;15.408;2023-03-01T01:34:02;98200;;;3.2;63.5
23253;BME280;11795;47.054;15.408;2023-03-01T01:36:00;98200;;;3.0;64.0
23253;BME280;11795;47.054;15.408;2023-03-01T01:38:00;98200;;;3.0;64.4
23253;BME280;11795;47.054;15.408;2023-03-01T01:40:01;98200;;;3.0;64.1
23253;BME280;11795;47.054;15.408;2023-03-01T01:42:00;98190;;;3.0;64.5
23253;BME280;11795;47.054;15.408;2023-03-01T01:44:13;98190;;;3.2;63.9
23253;BME280;11795;47.054;15.408;2023-03-01T01:46:02;98190;;;3.0;64.5
23253;BME280;11795;47.054;15.408;2023-03-01T01:48:03;98180;;;3.0;64.8
23253;BME280;11795;47.054;15.408;2023-03-01T01:50:01;98180;;;3.1;64.4
23253;BME280;11795;47.054;15.408;2023-03-01T01:52:05;98180;;;3.0;64.9
23253;BME280;11795;47.054;15.408;2023-03-01T01:54:01;98180;;;3.2;64.4
23253;BME280;11795;47.054;15.408;2023-03-01T01:56:01;98180;;;3.0;65.1
23253;BME280;11795;47.054;15.408;2023-03-01T01:58:02;98180;;;3.0;65.2
23253;BME280;11795;47.054;15.408;2023-03-01T02:00:05;98180;;;3.1;64.7
23253;BME280;11795;47.054;15.408;2023-03-01T02:02:02;98180;;;3.0;65.0
23253;BME280;11795;47.054;15.408;2023-03-01T02:04:00;98180;;;3.2;64.5
23253;BME280;11795;47.054;15.408;2023-03-01T02:06:03;98180;;;3.0;64.9
23253;BME280;11795;47.054;15.408;2023-03-01T02:08:00;98180;;;3.0;65.1
23253;BME280;11795;47.054;15.408;2023-03-01T02:10:00;98180;;;3.0;64.5
23253;BME280;11795;47.054;15.408;2023-03-01T02:12:01;98180;;;3.0;65.1
23253;BME280;11795;47.054;15.408;2023-03-01T02:14:00;98180;;;3.2;64.5
23253;BME280;11795;47.054;15.408;2023-03-01T02:16:03;98170;;;3.0;64.8
23253;BME280;11795;47.054;15.408;2023-03-01T02:18:01;98170;;;3.0;65.0
23253;BME280;11795;47.054;15.408;2023-03-01T02:20:10;98170;;;3.0;64.8
23253;BME280;11795;47.054;15.408;2023-03-01T02:22:05;98170;;;2.9;65.1
23253;BME280;11795;47.054;15.408;2023-03-01T02:24:06;98160;;;3.1;64.9
23253;BME280;11795;47.054;15.408;2023-03-01T02:26:04;98160;;;2.9;65.1
23253;BME280;11795;47.054;15.408;2023-03-01T02:28:06;98160;;;2.9;65.4
23253;BME280;11795;47.054;15.408;2023-03-01T02:30:00;98160;;;3.0;64.9
23253;BME280;11795;47.054;15.408;2023-03-01T02:32:02;98160;;;2.9;65.4
23253;BME280;11795;47.054;15.408;2023-03-01T02:34:01;98160;;;3.1;64.9
23253;BME280;11795;47.054;15.408;2023-03-01T02:36:02;98160;;;2.9;65.4
23253;BME280;11795;47.054;15.408;2023-03-01T02:38:01;98160;;;2.9;65.5
23253;BME280;11795;47.054;15.408;2023-03-01T02:40:04;98160;;;3.0;65.0
23253;BME280;11795;47.054;15.408;2023-03-01T02:42:02;98160;;;2.9;65.3
23253;BME280;11795;47.054;15.408;2023-03-01T02:44:00;98160;;;3.1;64.8
23253;BME280;11795;47.054;15.408;2023-03-01T02:46:03;98160;;;3.0;65.1
23253;BME280;11795;47.054;15.408;2023-03-01T02:48:00;98160;;;2.9;65.2
23253;BME280;11795;47.054;15.408;2023-03-01T02:50:00;98150;;;3.0;64.9
23253;BME280;11795;47.054;15.408;2023-03-01T02:52:10;98150;;;2.9;65.3
23253;BME280;11795;47.054;15.408;2023-03-01T02:54:08;98150;;;3.1;64.9
23253;BME280;11795;47.054;15.408;2023-03-01T02:56:00;98150;;;2.9;65.3
23253;BME280;11795;47.054;15.408;2023-03-01T02:58:02;98150;;;2.8;65.6
23253;BME280;11795;47.054;15.408;2023-03-01T03:00:06;98150;;;3.0;65.2
23253;BME280;11795;47.054;15.408;2023-03-01T03:02:00;98150;;;2.9;65.4
23253;BME280;11795;47.054;15.408;2023-03-01T03:04:00;98150;;;3.1;64.9
23253;BME280;11795;47.054;15.408;2023-03-01T03:06:00;98150;;;3.0;65.2
23253;BME280;11795;47.054;15.408;2023-03-01T03:08:02;98140;;;2.9;65.5
23253;BME280;11795;47.054;15.408;2023-03-01T03:10:00;98140;;;3.0;65.1
23253;BME280;11795;47.054;15.408;2023-03-01T03:12:00;98140;;;2.9;65.5
23253;BME280;11795;47.054;15.408;2023-03-01T03:14:00;98140;;;3.1;65.1
23253;BME280;11795;47.054;15.408;2023-03-01T03:16:02;98140;;;2.9;65.6
23253;BME280;11795;47.054;15.408;2023-03-01T03:18:00;98140;;;2.8;65.9
23253;BME280;11795;47.054;15.408;2023-03-01T03:20:00;98150;;;3.0;65.5
23253;BME280;11795;47.054;15.408;2023-03-01T03:22:00;98150;;;2.9;65.8
23253;BME280;11795;47.054;15.408;2023-03-01T03:24:01;98150;;;3.1;65.3
23253;BME280;11795;47.054;15.408;2023-03-01T03:26:00;98150;;;2.9;65.7
23253;BME280;11795;47.054;15.408;2023-03-01T03:28:00;98150;;;2.8;66.0
23253;BME280;11795;47.054;15.408;2023-03-01T03:30:00;98150;;;2.9;65.6
23253;BME280;11795;47.054;15.408;2023-03-01T03:32:00;98150;;;2.8;66.0
23253;BME280;11795;47.054;15.408;2023-03-01T03:34:00;98150;;;3.0;65.4
23253;BME280;11795;47.054;15.408;2023-03-01T03:36:00;98150;;;3.0;65.6
23253;BME280;11795;47.054;15.408;2023-03-01T03:38:05;98150;;;2.8;66.1
23253;BME280;11795;47.054;15.408;2023-03-01T03:40:00;98150;;;2.9;66.0
23253;BME280;11795;47.054;15.408;2023-03-01T03:42:01;98150;;;2.8;66.5
23253;BME280;11795;47.054;15.408;2023-03-01T03:44:00;98150;;;3.0;65.8
23253;BME280;11795;47.054;15.408;2023-03-01T03:46:02;98150;;;3.0;65.5
23253;BME280;11795;47.054;15.408;2023-03-01T03:48:01;98150;;;3.0;65.7
23253;BME280;11795;47.054;15.408;2023-03-01T03:50:00;98150;;;2.9;65.6
23253;BME280;11795;47.054;15.408;2023-03-01T03:52:00;98160;;;2.8;66.2
23253;BME280;11795;47.054;15.408;2023-03-01T03:54:00;98150;;;2.9;65.9
23253;BME280;11795;47.054;15.408;2023-03-01T03:56:00;98150;;;2.8;66.3
23253;BME280;11795;47.054;15.408;2023-03-01T03:58:03;98150;;;2.8;66.5
23253;BME280;11795;47.054;15.408;2023-03-01T04:00:00;98150;;;2.9;65.9
23253;BME280;11795;47.054;15.408;2023-03-01T04:02:00;98160;;;2.8;66.2
23253;BME280;11795;47.054;15.408;2023-03-01T04:04:04;98160;;;3.0;65.8
23253;BME280;11795;47.054;15.408;2023-03-01T04:06:01;98150;;;2.8;66.3
23253;BME280;11795;47.054;15.408;2023-03-01T04:08:02;98150;;;2.7;66.6
23253;BME280;11795;47.054;15.408;2023-03-01T04:10:01;98150;;;2.8;66.2
23253;BME280;11795;47.054;15.408;2023-03-01T04:12:00;98150;;;2.8;66.6
23253;BME280;11795;47.054;15.408;2023-03-01T04:14:00;98150;;;3.0;66.1
23253;BME280;11795;47.054;15.408;2023-03-01T04:16:00;98150;;;2.8;66.4
23253;BME280;11795;47.054;15.408;2023-03-01T04:18:00;98140;;;2.8;66.6
23253;BME280;11795;47.054;15.408;2023-03-01T04:20:07;98150;;;2.9;65.9
23253;BME280;11795;47.054;15.408;2023-03-01T04:22:00;98140;;;2.8;66.2
23253;BME280;11795;47.054;15.408;2023-03-01T04:24:01;98150;;;3.0;65.5
23253;BME280;11795;47.054;15.408;2023-03-01T04:26:00;98150;;;2.9;65.7
23253;BME280;11795;47.054;15.408;2023-03-01T04:28:00;98150;;;2.8;65.9
23253;BME280;11795;47.054;15.408;2023-03-01T04:30:01;98150;;;2.9;65.3
23253;BME280;11795;47.054;15.408;2023-03-01T04:32:00;98150;;;2.8;65.7
23253;BME280;11795;47.054;15.408;2023-03-01T04:34:00;98150;;;3.0;65.2
23253;BME280;11795;47.054;15.408;2023-03-01T04:36:00;98150;;;2.9;65.5
23253;BME280;11795;47.054;15.408;2023-03-01T04:38:00;98160;;;2.8;65.7
23253;BME280;11795;47.054;15.408;2023-03-01T04:40:00;98150;;;3.0;65.1
23253;BME280;11795;47.054;15.408;2023-03-01T04:42:00;98150;;;2.9;65.5
23253;BME280;11795;47.054;15.408;2023-03-01T04:44:00;98160;;;3.1;64.9
23253;BME280;11795;47.054;15.408;2023-03-01T04:46:04;98150;;;2.9;65.2
23253;BME280;11795;47.054;15.408;2023-03-01T04:48:00;98150;;;2.8;65.3
23253;BME280;11795;47.054;15.408;2023-03-01T04:50:00;98150;;;3.0;64.8
23253;BME280;11795;47.054;15.408;2023-03-01T04:52:03;98150;;;2.9;65.1
23253;BME280;11795;47.054;15.408;2023-03-01T04:54:00;98150;;;3.1;64.5
23253;BME280;11795;47.054;15.408;2023-03-01T04:56:00;98150;;;2.9;64.9
23253;BME280;11795;47.054;15.408;2023-03-01T04:58:00;98140;;;2.9;65.1
23253;BME280;11795;47.054;15.408;2023-03-01T05:00:00;98140;;;3.0;64.5
23253;BME280;11795;47.054;15.408;2023-03-01T05:02:00;98140;;;2.9;64.7
23253;BME280;11795;47.054;15.408;2023-03-01T05:04:03;98140;;;3.1;64.2
23253;BME280;11795;47.054;15.408;2023-03-01T05:06:00;98140;;;2.9;64.6
23253;BME280;11795;47.054;15.408;2023-03-01T05:08:03;98140;;;2.9;64.9
23253;BME280;11795;47.054;15.408;2023-03-01T05:10:00;98140;;;3.0;64.5
23253;BME280;11795;47.054;15.408;2023-03-01T05:12:00;98140;;;2.9;65.1
23253;BME280;11795;47.054;15.408;2023-03-01T05:14:00;98140;;;3.1;64.6
23253;BME280;11795;47.054;15.408;2023-03-01T05:16:01;98140;;;3.0;64.9
23253;BME280;11795;47.054;15.408;2023-03-01T05:18:01;98140;;;2.9;65.5
23253;BME280;11795;47.054;15.408;2023-03-01T05:20:01;98140;;;3.0;65.6
23253;BME280;11795;47.054;15.408;2023-03-01T05:22:03;98140;;;2.9;66.2
23253;BME280;11795;47.054;15.408;2023-03-01T05:24:00;98130;;;3.1;65.8
23253;BME280;11795;47.054;15.408;2023-03-01T05:26:01;98140;;;2.9;66.1
23253;BME280;11795;47.054;15.408;2023-03-01T05:28:04;98140;;;2.9;66.5
23253;BME280;11795;47.054;15.408;2023-03-01T05:30:11;98130;;;3.0;66.1
23253;BME280;11795;47.054;15.408;2023-03-01T05:32:02;98140;;;2.9;66.6
23253;BME280;11795;47.054;15.408;2023-03-01T05:34:01;98140;;;3.1;66.2
23253;BME280;11795;47.054;15.408;2023-03-01T05:36:00;98150;;;3.0;66.6
23253;BME280;11795;47.054;15.408;2023-03-01T05:38:00;98150;;;2.9;67.1
23253;BME280;11795;47.054;15.408;2023-03-01T05:40:00;98150;;;3.0;66.6
23253;BME280;11795;47.054;15.408;2023-03-01T05:42:01;98150;;;2.9;66.9
23253;BME280;11795;47.054;15.408;2023-03-01T05:44:00;98150;;;3.2;66.4
23253;BME280;11795;47.054;15.408;2023-03-01T05:46:00;98160;;;3.0;66.7
23253;BME280;11795;47.054;15.408;2023-03-01T05:48:00;98150;;;2.9;66.9
23253;BME280;11795;47.054;15.408;2023-03-01T05:50:00;98150;;;3.0;66.5
23253;BME280;11795;47.054;15.408;2023-03-01T05:52:00;98150;;;2.9;66.9
23253;BME280;11795;47.054;15.408;2023-03-01T05:54:00;98150;;;3.1;66.4
23253;BME280;11795;47.054;15.408;2023-03-01T05:56:02;98150;;;2.9;66.7
23253;BME280;11795;47.054;15.408;2023-03-01T05:58:01;98150;;;2.9;67.0
23253;BME280;11795;47.054;15.408;2023-03-01T06:00:01;98160;;;3.0;66.3
23253;BME280;11795;47.054;15.408;2023-03-01T06:02:00;98160;;;2.9;66.6
23253;BME280;11795;47.054;15.408;2023-03-01T06:04:02;98160;;;3.1;66.0
23253;BME280;11795;47.054;15.408;2023-03-01T06:06:00;98160;;;3.0;66.3
23253;BME280;11795;47.054;15.408;2023-03-01T06:08:01;98160;;;2.9;66.6
23253;BME280;11795;47.054;15.408;2023-03-01T06:10:00;98160;;;3.0;66.1
23253;BME280;11795;47.054;15.408;2023-03-01T06:12:00;98160;;;2.9;66.1
23253;BME280;11795;47.054;15.408;2023-03-01T06:14:00;98160;;;3.1;65.5
23253;BME280;11795;47.054;15.408;2023-03-01T06:16:00;98160;;;3.0;65.9
23253;BME280;11795;47.054;15.408;2023-03-01T06:18:00;98160;;;2.9;66.2
23253;BME280;11795;47.054;15.408;2023-03-01T06:20:01;98160;;;3.1;65.7
23253;BME280;11795;47.054;15.408;2023-03-01T06:22:00;98170;;;3.0;66.0
23253;BME280;11795;47.054;15.408;2023-03-01T06:24:00;98160;;;3.3;65.4
23253;BME280;11795;47.054;15.408;2023-03-01T06:26:05;98170;;;3.1;65.5
23253;BME280;11795;47.054;15.408;2023-03-01T06:28:00;98170;;;3.1;65.8
23253;BME280;11795;47.054;15.408;2023-03-01T06:30:00;98160;;;3.2;65.2
23253;BME280;11795;47.054;15.408;2023-03-01T06:32:00;98170;;;3.2;65.5
23253;BME280;11795;47.054;15.408;2023-03-01T06:34:00;98170;;;3.4;65.0
23253;BME280;11795;47.054;15.408;2023-03-01T06:36:00;98170;;;3.3;65.4
23253;BME280;11795;47.054;15.408;2023-03-01T06:38:02;98180;;;3.2;65.7
23253;BME280;11795;47.054;15.408;2023-03-01T06:40:05;98180;;;3.4;65.1
23253;BME280;11795;47.054;15.408;2023-03-01T06:42:00;98180;;;3.2;65.5
23253;BME280;11795;47.054;15.408;2023-03-01T06:44:00;98180;;;3.5;64.9
23253;BME280;11795;47.054;15.408;2023-03-01T06:46:04;98180;;;3.3;65.2
23253;BME280;11795;47.054;15.408;2023-03-01T06:48:03;98190;;;3.3;65.6
23253;BME280;11795;47.054;15.408;2023-03-01T06:50:01;98190;;;3.4;65.1
23253;BME280;11795;47.054;15.408;2023-03-01T06:52:00;98190;;;3.3;65.5
23253;BME280;11795;47.054;15.408;2023-03-01T06:54:00;98190;;;3.6;64.7
23253;BME280;11795;47.054;15.408;2023-03-01T06:56:00;98190;;;3.5;64.5
23253;BME280;11795;47.054;15.408;2023-03-01T06:58:01;98190;;;3.4;64.9
23253;BME280;11795;47.054;15.408;2023-03-01T07:00:01;98190;;;3.5;64.6
23253;BME280;11795;47.054;15.408;2023-03-01T07:02:00;98190;;;3.4;65.0
23253;BME280;11795;47.054;15.408;2023-03-01T07:04:00;98190;;;3.5;64.4
23253;BME280;11795;47.054;15.408;2023-03-01T07:06:00;98190;;;3.4;64.8
23253;BME280;11795;47.054;15.408;2023-03-01T07:08:00;98200;;;3.4;64.8
23253;BME280;11795;47.054;15.408;2023-03-01T07:10:00;98190;;;3.4;64.2
23253;BME280;11795;47.054;15.408;2023-03-01T07:12:00;98200;;;3.2;64.7
23253;BME280;11795;47.054;15.408;2023-03-01T07:14:00;98200;;;3.5;64.3
23253;BME280;11795;47.054;15.408;2023-03-01T07:16:00;98200;;;3.3;64.0
23253;BME280;11795;47.054;15.408;2023-03-01T07:18:00;98200;;;3.3;64.0
23253;BME280;11795;47.054;15.408;2023-03-01T07:20:00;98200;;;3.4;63.2
23253;BME280;11795;47.054;15.408;2023-03-01T07:22:00;98200;;;3.3;63.4
23253;BME280;11795;47.054;15.408;2023-03-01T07:24:00;98210;;;3.5;62.2
23253;BME280;11795;47.054;15.408;2023-03-01T07:26:00;98210;;;3.4;62.1
23253;BME280;11795;47.054;15.408;2023-03-01T07:28:00;98220;;;3.3;62.2
23253;BME280;11795;47.054;15.408;2023-03-01T07:30:00;98210;;;3.4;62.2
23253;BME280;11795;47.054;15.408;2023-03-01T07:32:00;98210;;;3.4;62.5
23253;BME280;11795;47.054;15.408;2023-03-01T07:34:00;98210;;;3.5;62.2
23253;BME280;11795;47.054;15.408;2023-03-01T07:36:02;98220;;;3.4;62.5
23253;BME280;11795;47.054;15.408;2023-03-01T07:38:00;98220;;;3.4;62.6
23253;BME280;11795;47.054;15.408;2023-03-01T07:40:00;98210;;;3.5;62.2
23253;BME280;11795;47.054;15.408;2023-03-01T07:42:00;98210;;;3.5;62.0
23253;BME280;11795;47.054;15.408;2023-03-01T07:44:00;98210;;;3.7;61.4
23253;BME280;11795;47.054;15.408;2023-03-01T07:46:01;98210;;;3.5;61.4
23253;BME280;11795;47.054;15.408;2023-03-01T07:48:00;98210;;;3.5;61.7
23253;BME280;11795;47.054;15.408;2023-03-01T07:50:01;98210;;;3.6;61.3
23253;BME280;11795;47.054;15.408;2023-03-01T07:52:00;98210;;;3.6;61.7
23253;BME280;11795;47.054;15.408;2023-03-01T07:54:00;98210;;;3.8;60.9
23253;BME280;11795;47.054;15.408;2023-03-01T07:56:02;98220;;;3.7;60.1
23253;BME280;11795;47.054;15.408;2023-03-01T07:58:00;98220;;;3.6;60.4
23253;BME280;11795;47.054;15.408;2023-03-01T08:00:00;98220;;;3.7;60.2
23253;BME280;11795;47.054;15.408;2023-03-01T08:02:00;98220;;;3.6;60.8
23253;BME280;11795;47.054;15.408;2023-03-01T08:04:00;98220;;;3.8;60.4
23253;BME280;11795;47.054;15.408;2023-03-01T08:06:01;98220;;;3.7;60.6
23253;BME280;11795;47.054;15.408;2023-03-01T08:08:00;98220;;;3.7;60.6
23253;BME280;11795;47.054;15.408;2023-03-01T08:10:00;98220;;;3.8;60.1
23253;BME280;11795;47.054;15.408;2023-03-01T08:12:00;98220;;;3.7;60.4
23253;BME280;11795;47.054;15.408;2023-03-01T08:14:00;98220;;;4.0;59.1
23253;BME280;11795;47.054;15.408;2023-03-01T08:16:01;98220;;;3.8;59.6
23253;BME280;11795;47.054;15.408;2023-03-01T08:18:01;98220;;;3.7;60.5
23253;BME280;11795;47.054;15.408;2023-03-01T08:20:00;98220;;;3.9;59.9
23253;BME280;11795;47.054;15.408;2023-03-01T08:22:01;98220;;;3.8;60.2
23253;BME280;11795;47.054;15.408;2023-03-01T08:24:00;98220;;;4.0;60.3
23253;BME280;11795;47.054;15.408;2023-03-01T08:26:04;98220;;;3.9;60.5
23253;BME280;11795;47.054;15.408;2023-03-01T08:28:00;98230;;;3.8;60.6
23253;BME280;11795;47.054;15.408;2023-03-01T08:30:00;98220;;;3.9;60.3
23253;BME280;11795;47.054;15.408;2023-03-01T08:32:00;98220;;;3.8;60.2
23253;BME280;11795;47.054;15.408;2023-03-01T08:34:02;98220;;;4.0;60.3
23253;BME280;11795;47.054;15.408;2023-03-01T08:36:03;98220;;;3.8;60.9
23253;BME280;11795;47.054;15.408;2023-03-01T08:38:00;98210;;;3.8;61.4
23253;BME280;11795;47.054;15.408;2023-03-01T08:40:00;98210;;;4.0;60.8
23253;BME280;11795;47.054;15.408;2023-03-01T08:42:00;98210;;;3.8;60.7
23253;BME280;11795;47.054;15.408;2023-03-01T08:44:00;98210;;;4.0;60.4
23253;BME280;11795;47.054;15.408;2023-03-01T08:46:00;98210;;;3.9;60.6
23253;BME280;11795;47.054;15.408;2023-03-01T08:48:00;98200;;;3.8;60.8
23253;BME280;11795;47.054;15.408;2023-03-01T08:50:00;98200;;;4.0;60.4
23253;BME280;11795;47.054;15.408;2023-03-01T08:52:01;98200;;;3.9;60.7
23253;BME280;11795;47.054;15.408;2023-03-01T08:54:00;98200;;;4.1;60.6
23253;BME280;11795;47.054;15.408;2023-03-01T08:56:01;98190;;;4.0;60.6
23253;BME280;11795;47.054;15.408;2023-03-01T08:58:00;98190;;;4.0;60.7
23253;BME280;11795;47.054;15.408;2023-03-01T09:00:01;98190;;;4.2;59.0
23253;BME280;11795;47.054;15.408;2023-03-01T09:02:00;98180;;;4.0;59.6
23253;BME280;11795;47.054;15.408;2023-03-01T09:04:00;98190;;;4.2;59.0
23253;BME280;11795;47.054;15.408;2023-03-01T09:06:02;98180;;;3.9;59.2
23253;BME280;11795;47.054;15.408;2023-03-01T09:08:00;98180;;;4.0;59.3
23253;BME280;11795;47.054;15.408;2023-03-01T09:10:00;98180;;;4.1;59.4
23253;BME280;11795;47.054;15.408;2023-03-01T09:12:01;98180;;;3.8;59.6
23253;BME280;11795;47.054;15.408;2023-03-01T09:14:00;98170;;;3.9;59.8
23253;BME280;11795;47.054;15.408;2023-03-01T09:16:01;98170;;;3.8;60.4
23253;BME280;11795;47.054;15.408;2023-03-01T09:18:00;98170;;;3.8;60.5
23253;BME280;11795;47.054;15.408;2023-03-01T09:20:00;98170;;;4.0;60.2
23253;BME280;11795;47.054;15.408;2023-03-01T09:22:00;98160;;;3.9;60.7
23253;BME280;11795;47.054;15.408;2023-03-01T09:24:01;98160;;;4.2;60.3
23253;BME280;11795;47.054;15.408;2023-03-01T09:26:00;98160;;;4.2;60.0
23253;BME280;11795;47.054;15.408;2023-03-01T09:28:00;98160;;;4.2;59.6
23253;BME280;11795;47.054;15.408;2023-03-01T09:30:00;98160;;;4.2;59.5
23253;BME280;11795;47.054;15.408;2023-03-01T09:32:00;98160;;;4.1;60.1
23253;BME280;11795;47.054;15.408;2023-03-01T09:34:00;98150;;;4.3;60.0
23253;BME280;11795;47.054;15.408;2023-03-01T09:36:02;98150;;;4.1;60.3
23253;BME280;11795;47.054;15.408;2023-03-01T09:38:00;98140;;;4.2;60.5
23253;BME280;11795;47.054;15.408;2023-03-01T09:40:01;98140;;;4.4;59.4
23253;BME280;11795;47.054;15.408;2023-03-01T09:42:03;98140;;;4.3;59.6
23253;BME280;11795;47.054;15.408;2023-03-01T09:44:03;98140;;;4.3;59.7
23253;BME280;11795;47.054;15.408;2023-03-01T09:46:04;98140;;;4.2;59.9
23253;BME280;11795;47.054;15.408;2023-03-01T09:48:01;98140;;;4.2;60.2
23253;BME280;11795;47.054;15.408;2023-03-01T09:50:04;98130;;;4.3;59.8
23253;BME280;11795;47.054;15.408;2023-03-01T09:52:06;98140;;;4.3;59.6
23253;BME280;11795;47.054;15.408;2023-03-01T09:54:02;98130;;;4.4;59.5
23253;BME280;11795;47.054;15.408;2023-03-01T09:56:05;98130;;;4.2;59.7
23253;BME280;11795;47.054;15.408;2023-03-01T09:58:12;98130;;;4.1;59.8
23253;BME280;11795;47.054;15.408;2023-03-01T10:00:11;98130;;;4.3;59.6
23253;BME280;11795;47.054;15.408;2023-03-01T10:02:21;98130;;;4.3;59.9
23253;BME280;11795;47.054;15.408;2023-03-01T10:04:12;98130;;;4.5;59.6
23253;BME280;11795;47.054;15.408;2023-03-01T10:06:04;98120;;;4.4;59.7
23253;BME280;11795;47.054;15.408;2023-03-01T10:08:06;98120;;;4.3;60.1
23253;BME280;11795;47.054;15.408;2023-03-01T10:10:05;98110;;;4.5;59.6
23253;BME280;11795;47.054;15.408;2023-03-01T10:12:02;98120;;;4.5;59.7
23253;BME280;11795;47.054;15.408;2023-03-01T10:14:04;98110;;;4.6;59.5
23253;BME280;11795;47.054;15.408;2023-03-01T10:16:05;98120;;;4.6;59.4
23253;BME280;11795;47.054;15.408;2023-03-01T10:18:04;98120;;;4.5;59.4
23253;BME280;11795;47.054;15.408;2023-03-01T10:20:14;98110;;;4.7;59.0
23253;BME280;11795;47.054;15.408;2023-03-01T10:22:04;98120;;;4.6;59.0
23253;BME280;11795;47.054;15.408;2023-03-01T10:24:10;98120;;;4.8;58.8
23253;BME280;11795;47.054;15.408;2023-03-01T10:26:09;98120;;;4.7;59.0
23253;BME280;11795;47.054;15.408;2023-03-01T10:28:06;98120;;;4.7;59.3
23253;BME280;11795;47.054;15.408;2023-03-01T10:30:07;98130;;;4.9;58.8
23253;BME280;11795;47.054;15.408;2023-03-01T10:32:03;98130;;;4.7;58.5
23253;BME280;11795;47.054;15.408;2023-03-01T10:34:01;98130;;;4.9;58.7
23253;BME280;11795;47.054;15.408;2023-03-01T10:36:01;98140;;;4.7;58.7
23253;BME280;11795;47.054;15.408;2023-03-01T10:38:04;98150;;;4.5;59.3
23253;BME280;11795;47.054;15.408;2023-03-01T10:40:03;98150;;;4.7;59.0
23253;BME280;11795;47.054;15.408;2023-03-01T10:42:02;98160;;;4.6;59.2
23253;BME280;11795;47.054;15.408;2023-03-01T10:44:00;98170;;;4.7;59.1
23253;BME280;11795;47.054;15.408;2023-03-01T10:46:00;98170;;;4.5;59.3
23253;BME280;11795;47.054;15.408;2023-03-01T10:48:09;98170;;;4.4;59.8
23253;BME280;11795;47.054;15.408;2023-03-01T10:50:03;98170;;;4.6;59.5
23253;BME280;11795;47.054;15.408;2023-03-01T10:52:15;98170;;;4.5;59.7
23253;BME280;11795;47.054;15.408;2023-03-01T10:54:01;98170;;;4.7;59.4
23253;BME280;11795;47.054;15.408;2023-03-01T10:56:03;98170;;;4.5;59.7
23253;BME280;11795;47.054;15.408;2023-03-01T10:58:12;98170;;;4.4;60.4
23253;BME280;11795;47.054;15.408;2023-03-01T11:02:04;98160;;;4.5;60.3
23253;BME280;11795;47.054;15.408;2023-03-01T11:04:10;98160;;;4.7;60.5
23253;BME280;11795;47.054;15.408;2023-03-01T11:06:04;98150;;;4.6;60.6
23253;BME280;11795;47.054;15.408;2023-03-01T11:08:01;98160;;;4.5;61.1
23253;BME280;11795;47.054;15.408;2023-03-01T11:10:11;98150;;;4.7;60.8
23253;BME280;11795;47.054;15.408;2023-03-01T11:12:00;98140;;;4.6;61.4
23253;BME280;11795;47.054;15.408;2023-03-01T11:14:13;98140;;;4.8;61.1
23253;BME280;11795;47.054;15.408;2023-03-01T11:16:02;98140;;;4.7;61.2
23253;BME280;11795;47.054;15.408;2023-03-01T11:18:00;98140;;;4.7;61.6
23253;BME280;11795;47.054;15.408;2023-03-01T11:20:05;98140;;;4.8;61.2
23253;BME280;11795;47.054;15.408;2023-03-01T11:22:03;98140;;;4.7;61.5